createdAt,value
2022-12-25T00:00:44.978Z,92.33
2022-12-25T00:05:47.603Z,92.85
2022-12-25T00:11:05.275Z,92.29
2022-12-25T00:16:16.025Z,92.62
2022-12-25T00:21:20.174Z,92.39
2022-12-25T00:26:25.527Z,93.19
2022-12-25T00:31:28.569Z,93.24
2022-12-25T00:36:36.258Z,92.95
2022-12-25T00:42:00.961Z,93.00
2022-12-25T00:47:03.864Z,91.48
2022-12-25T00:52:06.634Z,91.69
2022-12-25T00:57:09.619Z,91.60
2022-12-25T01:02:24.390Z,90.68
2022-12-25T01:07:27.617Z,90.94
2022-12-25T01:12:35.062Z,90.34
2022-12-25T01:17:37.796Z,90.38
2022-12-25T01:22:40.707Z,89.58
2022-12-25T01:27:43.865Z,89.97
2022-12-25T01:32:46.419Z,89.89
2022-12-25T01:37:50.012Z,88.75
2022-12-25T01:42:52.886Z,88.90
2022-12-25T01:47:55.500Z,88.67
2022-12-25T01:52:58.634Z,88.66
2022-12-25T01:58:01.417Z,88.33
2022-12-25T02:03:04.480Z,87.83
2022-12-25T02:08:12.755Z,88.00
2022-12-25T02:13:18.588Z,87.03
2022-12-25T02:18:56.556Z,86.75
2022-12-25T02:24:11.195Z,86.93
2022-12-25T02:29:30.825Z,87.01
2022-12-25T02:35:10.616Z,86.42
2022-12-25T02:40:21.297Z,85.80
2022-12-25T02:46:05.708Z,85.60
2022-12-25T02:51:30.138Z,85.70
2022-12-25T02:56:53.181Z,85.36
2022-12-25T03:02:15.250Z,85.26
2022-12-25T03:07:22.787Z,85.49
2022-12-25T03:12:39.223Z,85.04
2022-12-25T03:17:42.319Z,85.18
2022-12-25T03:23:05.223Z,84.80
2022-12-25T03:28:07.788Z,84.23
2022-12-25T03:33:45.103Z,84.30
2022-12-25T03:39:29.668Z,84.24
2022-12-25T03:44:53.597Z,84.16
2022-12-25T03:50:21.809Z,84.16
2022-12-25T03:55:44.619Z,83.75
2022-12-25T04:01:05.661Z,83.48
2022-12-25T04:06:27.084Z,82.98
2022-12-25T04:11:48.104Z,83.89
2022-12-25T04:17:09.472Z,83.53
2022-12-25T04:22:30.663Z,83.54
2022-12-25T04:27:51.687Z,83.24
2022-12-25T04:33:19.513Z,83.42
2022-12-25T04:38:22.398Z,83.62
2022-12-25T04:43:25.419Z,83.83
2022-12-25T04:48:30.350Z,83.35
2022-12-25T04:53:32.923Z,83.59
2022-12-25T04:58:35.761Z,83.21
2022-12-25T05:03:38.418Z,82.18
2022-12-25T05:08:41.065Z,83.02
2022-12-25T05:13:43.869Z,82.71
2022-12-25T05:18:49.566Z,82.55
2022-12-25T05:23:55.036Z,82.27
2022-12-25T05:28:57.695Z,82.13
2022-12-25T05:34:00.253Z,81.67
2022-12-25T05:39:02.839Z,81.92
2022-12-25T05:44:05.452Z,81.72
2022-12-25T05:49:08.578Z,81.24
2022-12-25T05:54:11.217Z,81.50
2022-12-25T05:59:13.733Z,81.48
2022-12-25T06:04:16.374Z,81.50
2022-12-25T06:09:19.374Z,81.37
2022-12-25T06:14:22.087Z,81.61
2022-12-25T06:19:24.866Z,81.94
2022-12-25T06:24:27.517Z,81.95
2022-12-25T06:29:30.097Z,81.86
2022-12-25T06:34:32.645Z,81.84
2022-12-25T06:39:35.301Z,81.86
2022-12-25T06:44:38.400Z,81.43
2022-12-25T06:49:40.951Z,81.47
2022-12-25T06:54:43.830Z,80.82
2022-12-25T06:59:52.970Z,81.74
2022-12-25T07:04:58.121Z,81.33
2022-12-25T07:10:00.756Z,80.79
2022-12-25T07:15:04.223Z,81.92
2022-12-25T07:20:07.593Z,81.28
2022-12-25T07:25:10.279Z,81.06
2022-12-25T07:30:13.432Z,80.79
2022-12-25T07:35:16.476Z,80.79
2022-12-25T07:40:19.123Z,80.42
2022-12-25T07:45:21.800Z,79.82
2022-12-25T07:50:24.522Z,79.44
2022-12-25T07:55:27.100Z,79.91
2022-12-25T08:00:32.878Z,79.89
2022-12-25T08:05:35.575Z,80.55
2022-12-25T08:10:38.182Z,80.06
2022-12-25T08:15:41.409Z,80.04
2022-12-25T08:20:44.147Z,79.94
2022-12-25T08:25:46.771Z,79.50
2022-12-25T08:30:49.475Z,79.63
2022-12-25T08:35:52.073Z,79.77
2022-12-25T08:40:54.690Z,79.26
2022-12-25T08:45:57.502Z,78.96
2022-12-25T08:51:00.992Z,78.96
2022-12-25T08:56:07.366Z,79.31
2022-12-25T09:01:10.960Z,78.99
2022-12-25T09:06:16.141Z,78.86
2022-12-25T09:11:20.786Z,79.02
2022-12-25T09:16:23.552Z,78.76
2022-12-25T09:21:26.274Z,78.63
2022-12-25T09:26:28.961Z,78.74
2022-12-25T09:31:31.733Z,78.70
2022-12-25T09:36:34.412Z,78.47
2022-12-25T09:41:52.012Z,78.92
2022-12-25T09:46:59.428Z,78.46
2022-12-25T09:52:09.013Z,78.60
2022-12-25T09:57:13.939Z,78.83
2022-12-25T10:02:37.588Z,78.54
2022-12-25T10:08:04.508Z,78.21
2022-12-25T10:13:33.600Z,78.28
2022-12-25T10:18:39.144Z,78.34
2022-12-25T10:23:47.622Z,78.38
2022-12-25T10:29:01.884Z,77.96
2022-12-25T10:34:06.321Z,78.02
2022-12-25T10:39:16.357Z,77.58
2022-12-25T10:44:21.681Z,77.94
2022-12-25T10:49:29.683Z,77.42
2022-12-25T10:54:37.560Z,76.90
2022-12-25T10:59:46.175Z,77.38
2022-12-25T11:04:49.700Z,76.18
2022-12-25T11:10:04.596Z,76.45
2022-12-25T11:15:33.956Z,76.40
2022-12-25T11:20:40.023Z,76.62
2022-12-25T11:25:45.017Z,76.05
2022-12-25T11:30:53.507Z,75.92
2022-12-25T11:35:58.554Z,75.91
2022-12-25T11:41:04.607Z,75.97
2022-12-25T11:46:39.249Z,75.38
2022-12-25T11:51:46.063Z,75.03
2022-12-25T11:56:50.121Z,74.60
2022-12-25T12:01:58.969Z,74.87
2022-12-25T12:07:27.698Z,74.79
2022-12-25T12:12:48.493Z,74.05
2022-12-25T12:17:51.615Z,73.94
2022-12-25T12:22:54.502Z,73.78
2022-12-25T12:28:05.383Z,73.42
2022-12-25T12:33:20.726Z,73.61
2022-12-25T12:38:24.783Z,73.43
2022-12-25T12:43:32.262Z,72.97
2022-12-25T12:48:41.466Z,72.62
2022-12-25T12:53:44.164Z,73.09
2022-12-25T12:58:51.239Z,72.68
2022-12-25T13:04:20.178Z,72.52
2022-12-25T13:10:00.801Z,72.03
2022-12-25T13:15:03.578Z,72.17
2022-12-25T13:20:17.777Z,71.84
2022-12-25T13:25:22.721Z,71.34
2022-12-25T13:30:25.735Z,71.51
2022-12-25T13:35:28.311Z,71.88
2022-12-25T13:40:31.035Z,71.97
2022-12-25T13:45:35.079Z,72.05
2022-12-25T13:50:37.898Z,72.12
2022-12-25T13:55:42.521Z,71.98
2022-12-25T14:00:53.359Z,72.48
2022-12-25T14:06:26.292Z,72.36
2022-12-25T14:11:31.395Z,72.70
2022-12-25T14:16:34.735Z,72.99
2022-12-25T14:21:41.875Z,73.63
2022-12-25T14:26:44.480Z,73.60
2022-12-25T14:31:47.684Z,74.36
2022-12-25T14:36:53.337Z,73.86
2022-12-25T14:41:56.668Z,74.58
2022-12-25T14:47:14.981Z,74.54
2022-12-25T14:52:26.754Z,74.59
2022-12-25T14:57:31.337Z,75.25
2022-12-25T15:02:45.119Z,75.38
2022-12-25T15:08:18.541Z,75.07
2022-12-25T15:13:21.382Z,75.68
2022-12-25T15:18:26.459Z,75.31
2022-12-25T15:23:29.139Z,76.37
2022-12-25T15:28:31.672Z,76.08
2022-12-25T15:33:36.092Z,76.35
2022-12-25T15:38:40.628Z,76.65
2022-12-25T15:43:43.173Z,76.46
2022-12-25T15:48:45.745Z,76.19
2022-12-25T15:53:48.433Z,76.95
2022-12-25T15:58:51.095Z,76.85
2022-12-25T16:03:53.772Z,76.80
2022-12-25T16:08:56.614Z,77.23
2022-12-25T16:13:59.177Z,77.34
2022-12-25T16:19:01.784Z,76.73
2022-12-25T16:24:04.684Z,76.58
2022-12-25T16:29:07.880Z,76.68
2022-12-25T16:34:10.723Z,76.79
2022-12-25T16:39:13.275Z,76.99
2022-12-25T16:44:15.871Z,76.77
2022-12-25T16:49:18.479Z,76.85
2022-12-25T16:54:21.092Z,76.57
2022-12-25T16:59:23.687Z,76.40
2022-12-25T17:04:27.976Z,76.25
2022-12-25T17:09:31.522Z,76.39
2022-12-25T17:14:35.137Z,76.13
2022-12-25T17:19:38.214Z,76.62
2022-12-25T17:24:41.696Z,76.16
2022-12-25T17:29:45.170Z,76.39
2022-12-25T17:34:47.905Z,76.65
2022-12-25T17:39:50.451Z,76.79
2022-12-25T17:44:53.062Z,76.31
2022-12-25T17:49:55.686Z,76.51
2022-12-25T17:54:58.217Z,76.76
2022-12-25T18:00:00.824Z,76.51
2022-12-25T18:05:04.120Z,76.62
2022-12-25T18:10:07.419Z,76.71
2022-12-25T18:15:10.772Z,76.79
2022-12-25T18:20:13.459Z,76.71
2022-12-25T18:25:16.167Z,76.69
2022-12-25T18:30:19.584Z,76.27
2022-12-25T18:35:22.361Z,75.72
2022-12-25T18:40:24.946Z,75.58
2022-12-25T18:45:27.638Z,75.57
2022-12-25T18:50:30.666Z,75.79
2022-12-25T18:55:33.624Z,75.65
2022-12-25T19:00:36.276Z,75.83
2022-12-25T19:05:40.509Z,75.47
2022-12-25T19:10:44.510Z,75.54
2022-12-25T19:15:47.181Z,75.37
2022-12-25T19:20:49.954Z,75.59
2022-12-25T19:25:53.645Z,75.58
2022-12-25T19:30:59.755Z,75.07
2022-12-25T19:36:08.450Z,75.47
2022-12-25T19:41:17.127Z,75.35
2022-12-25T19:46:23.433Z,75.12
2022-12-25T19:51:28.912Z,75.52
2022-12-25T19:56:32.705Z,75.76
2022-12-25T20:01:35.656Z,75.65
2022-12-25T20:06:40.848Z,75.93
2022-12-25T20:11:43.672Z,75.20
2022-12-25T20:16:46.515Z,75.05
2022-12-25T20:21:49.106Z,75.00
2022-12-25T20:26:58.558Z,74.39
2022-12-25T20:32:01.724Z,73.73
2022-12-25T20:37:04.367Z,73.37
2022-12-25T20:42:08.567Z,73.43
2022-12-25T20:47:11.178Z,73.24
2022-12-25T20:52:13.829Z,73.35
2022-12-25T20:57:16.462Z,73.06
2022-12-25T21:02:34.593Z,73.54
2022-12-25T21:07:38.209Z,72.84
2022-12-25T21:12:40.799Z,72.99
2022-12-25T21:17:43.434Z,72.50
2022-12-25T21:22:46.127Z,71.60
2022-12-25T21:27:48.771Z,72.37
2022-12-25T21:33:09.937Z,72.53
2022-12-25T21:38:12.636Z,71.91
2022-12-25T21:43:15.297Z,72.18
2022-12-25T21:48:17.886Z,71.65
2022-12-25T21:53:20.913Z,71.46
2022-12-25T21:58:23.796Z,71.50
2022-12-25T22:03:26.506Z,71.55
2022-12-25T22:08:33.050Z,71.17
2022-12-25T22:13:54.330Z,70.90
2022-12-25T22:19:15.852Z,71.28
2022-12-25T22:24:18.386Z,71.97
2022-12-25T22:29:20.904Z,72.72
2022-12-25T22:34:24.156Z,73.12
2022-12-25T22:39:27.407Z,73.31
2022-12-25T22:44:32.688Z,73.92
2022-12-25T22:49:35.325Z,73.81
2022-12-25T22:54:38.370Z,74.45
2022-12-25T22:59:41.098Z,74.16
2022-12-25T23:04:43.611Z,74.85
2022-12-25T23:09:46.271Z,75.16
2022-12-25T23:14:48.894Z,75.29
2022-12-25T23:20:10.178Z,75.67
2022-12-25T23:25:33.952Z,75.95
2022-12-25T23:30:36.550Z,76.87
2022-12-25T23:35:39.629Z,76.60
2022-12-25T23:40:42.181Z,76.13
2022-12-25T23:45:44.720Z,76.71
2022-12-25T23:50:47.298Z,77.25
2022-12-25T23:55:55.693Z,77.33
